Time;durP1;ratioP1;P1;durP2;ratioP2;P2;SDS_P1;SDS_P2;PMS_P1;PMS_P2;Temp;Humidity;BMP_temperature;BMP_pressure;BME280_temperature;BME280_humidity;BME280_pressure;Samples;Min_cycle;Max_cycle;Signal;HPM_P1;HPM_P2
2021/12/24 00:01:59;;;;;;;7.03;6.30;;;23.50;32.10;;;;;;5005936;28;20034;-46
2021/12/24 00:04:25;;;;;;;6.40;5.72;;;23.40;32.00;;;;;;5007010;28;20037;-47
2021/12/24 00:06:52;;;;;;;7.50;6.70;;;23.50;32.10;;;;;;5012583;28;20044;-45
2021/12/24 00:09:25;;;;;;;7.18;5.90;;;23.40;32.00;;;;;;5025261;28;20685;-46
2021/12/24 00:11:57;;;;;;;7.32;6.55;;;23.40;32.00;;;;;;5025746;28;20035;-46
2021/12/24 00:14:24;;;;;;;6.57;5.53;;;23.40;32.10;;;;;;5025425;28;20490;-46
2021/12/24 00:16:54;;;;;;;6.78;6.07;;;23.30;32.10;;;;;;5011817;28;20030;-45
2021/12/24 00:35:31;;;;;;;7.35;6.57;;;23.20;32.00;;;;;;5005800;28;20037;-44
2021/12/24 00:38:03;;;;;;;7.57;6.78;;;23.20;32.20;;;;;;5004723;28;20084;-46
2021/12/24 00:40:39;;;;;;;7.32;6.13;;;23.20;32.20;;;;;;5004200;28;20120;-45
2021/12/24 00:43:06;;;;;;;6.95;6.25;;;23.20;32.20;;;;;;5004687;28;20034;-47
2021/12/24 00:45:36;;;;;;;7.13;6.13;;;23.20;32.80;;;;;;5005029;28;20029;-46
2021/12/24 00:48:03;;;;;;;7.10;6.13;;;23.10;32.20;;;;;;5005145;28;20520;-45
2021/12/24 00:50:45;;;;;;;6.20;5.60;;;23.10;32.10;;;;;;5016283;28;20060;-46
2021/12/24 00:55:02;;;;;;;7.38;6.50;;;23.10;32.20;;;;;;5004801;28;20026;-46
2021/12/24 00:55:57;;;;;;;6.72;6.03;;;23.10;32.20;;;;;;5006346;28;20571;-45
2021/12/24 00:58:22;;;;;;;7.40;6.20;;;23.10;32.10;;;;;;5014628;28;20469;-45
2021/12/24 01:00:48;;;;;;;6.82;6.13;;;23.10;32.20;;;;;;5020083;28;20030;-47
2021/12/24 01:03:14;;;;;;;6.95;5.85;;;23.10;32.20;;;;;;5004667;28;20092;-46
2021/12/24 01:05:40;;;;;;;7.32;5.85;;;23.00;32.10;;;;;;5005060;28;20034;-46
2021/12/24 01:08:08;;;;;;;6.53;5.53;;;23.10;32.20;;;;;;5004682;28;20026;-47
2021/12/24 01:10:56;;;;;;;7.18;6.47;;;23.00;32.10;;;;;;5005104;28;20029;-46
2021/12/24 01:13:23;;;;;;;6.65;5.78;;;23.00;32.10;;;;;;5004019;28;20018;-47
2021/12/24 01:21:08;;;;;;;6.10;5.43;;;23.00;32.10;;;;;;5004922;28;20386;-46
2021/12/24 01:23:44;;;;;;;6.35;5.53;;;23.00;32.80;;;;;;5002608;28;20026;-48
2021/12/24 01:26:14;;;;;;;6.72;5.75;;;23.00;32.10;;;;;;5005006;28;20066;-47
2021/12/24 01:40:21;;;;;;;6.28;5.20;;;22.90;32.10;;;;;;5004185;28;20080;-47
2021/12/24 01:44:54;;;;;;;6.32;5.30;;;22.90;32.10;;;;;;5004930;28;20029;-47
2021/12/24 01:47:20;;;;;;;5.85;5.25;;;22.80;32.00;;;;;;5004098;28;20030;-46
2021/12/24 01:49:45;;;;;;;6.80;5.82;;;22.80;32.00;;;;;;5011735;28;20029;-46
2021/12/24 01:52:14;;;;;;;6.47;5.78;;;22.80;32.10;;;;;;5025580;28;20037;-47
2021/12/24 01:54:41;;;;;;;6.07;5.47;;;22.80;32.00;;;;;;5016730;28;20612;-46
2021/12/24 01:57:07;;;;;;;6.30;5.50;;;22.80;32.00;;;;;;5022717;28;20025;-46
2021/12/24 01:59:33;;;;;;;6.22;5.32;;;22.80;32.00;;;;;;5022161;28;20040;-45
2021/12/24 02:01:59;;;;;;;5.97;5.13;;;22.80;32.10;;;;;;5010710;28;20038;-45
2021/12/24 02:04:25;;;;;;;6.32;5.57;;;22.80;32.10;;;;;;5003668;28;20022;-46
2021/12/24 02:06:51;;;;;;;6.60;5.43;;;22.80;32.10;;;;;;5004713;28;20336;-46
2021/12/24 02:09:17;;;;;;;6.63;5.63;;;22.80;32.10;;;;;;5007874;28;20406;-47
2021/12/24 02:11:43;;;;;;;6.35;5.47;;;22.80;32.10;;;;;;5010377;28;20022;-46
2021/12/24 02:14:12;;;;;;;7.00;5.93;;;22.80;32.10;;;;;;5027564;28;20762;-47
2021/12/24 02:30:41;;;;;;;6.10;5.13;;;22.70;32.30;;;;;;5005278;28;20109;-46
2021/12/24 02:33:07;;;;;;;6.38;5.63;;;22.70;32.40;;;;;;5006126;28;20066;-45
2021/12/24 02:35:33;;;;;;;5.90;5.30;;;22.70;32.20;;;;;;5008164;28;20447;-46
2021/12/24 02:38:00;;;;;;;6.20;5.53;;;22.60;32.40;;;;;;5007705;28;20030;-46
2021/12/24 02:40:27;;;;;;;6.05;5.45;;;22.70;32.20;;;;;;5007923;28;20030;-45
2021/12/24 02:42:56;;;;;;;6.75;5.75;;;22.60;32.10;;;;;;5005928;28;20052;-45
2021/12/24 02:45:23;;;;;;;6.15;5.28;;;22.60;32.20;;;;;;5007511;28;20030;-46
2021/12/24 02:55:29;;;;;;;6.13;5.53;;;22.60;32.20;;;;;;5011109;28;20049;-46
2021/12/24 02:57:55;;;;;;;5.40;4.60;;;22.60;32.20;;;;;;5026627;28;20033;-48
2021/12/24 03:00:25;;;;;;;6.63;5.63;;;22.60;32.30;;;;;;5025629;28;20063;-46
2021/12/24 03:02:51;;;;;;;5.88;5.25;;;22.60;32.20;;;;;;5007222;28;20037;-45
2021/12/24 03:05:20;;;;;;;5.88;5.28;;;22.60;32.20;;;;;;5007130;28;20120;-46
2021/12/24 03:07:47;;;;;;;6.18;5.38;;;22.60;32.20;;;;;;5006539;28;20096;-46
2021/12/24 03:10:16;;;;;;;5.90;5.18;;;22.60;32.20;;;;;;5007213;28;20033;-47
2021/12/24 03:12:44;;;;;;;5.53;4.93;;;22.60;32.30;;;;;;5005198;28;20018;-47
2021/12/24 03:15:12;;;;;;;6.03;5.40;;;22.50;32.20;;;;;;5007435;28;20529;-45
2021/12/24 03:17:38;;;;;;;6.68;5.85;;;22.50;32.20;;;;;;5006635;28;20038;-47
2021/12/24 03:20:09;;;;;;;6.72;5.75;;;22.50;32.20;;;;;;5004816;28;20490;-46
2021/12/24 03:23:21;;;;;;;6.13;5.13;;;22.50;32.20;;;;;;5006708;28;20065;-46
2021/12/24 03:25:27;;;;;;;5.85;4.85;;;22.50;32.20;;;;;;5013516;28;20099;-44
2021/12/24 03:27:53;;;;;;;6.13;5.18;;;22.50;32.30;;;;;;5024016;28;20029;-48
2021/12/24 03:30:19;;;;;;;5.85;5.13;;;22.50;32.30;;;;;;5026217;28;20028;-47
2021/12/24 03:32:44;;;;;;;6.25;5.30;;;22.50;32.30;;;;;;5008562;28;20034;-46
2021/12/24 03:35:10;;;;;;;6.10;5.10;;;22.50;32.30;;;;;;5006689;28;20121;-46
2021/12/24 03:37:36;;;;;;;6.43;5.45;;;22.50;32.30;;;;;;5006931;28;20022;-45
2021/12/24 03:40:03;;;;;;;5.85;4.80;;;22.50;32.30;;;;;;5006194;28;20057;-47
2021/12/24 03:42:29;;;;;;;5.60;4.93;;;22.50;32.30;;;;;;5006013;28;20470;-46
2021/12/24 03:45:08;;;;;;;5.50;4.68;;;22.50;32.40;;;;;;5005932;28;20092;-45
2021/12/24 03:47:38;;;;;;;5.03;4.20;;;22.50;32.50;;;;;;5005877;28;20045;-46
2021/12/24 03:50:09;;;;;;;6.00;4.70;;;22.50;32.40;;;;;;5018512;28;20100;-46
2021/12/24 03:55:01;;;;;;;6.07;4.70;;;22.50;32.50;;;;;;5006220;28;20030;-45
2021/12/24 03:57:32;;;;;;;6.03;4.65;;;22.50;32.50;;;;;;5005519;28;20052;-45
2021/12/24 04:00:04;;;;;;;5.97;4.85;;;22.50;32.50;;;;;;5006389;28;20061;-46
2021/12/24 04:02:30;;;;;;;5.18;4.22;;;22.50;32.50;;;;;;5005687;28;20707;-46
2021/12/24 04:04:55;;;;;;;5.70;5.00;;;22.40;32.40;;;;;;5006223;28;20033;-48
2021/12/24 04:07:21;;;;;;;6.03;4.90;;;22.40;32.40;;;;;;5006227;28;20767;-46
2021/12/24 04:10:01;;;;;;;5.78;4.78;;;22.50;32.50;;;;;;5005244;28;20168;-45
2021/12/24 04:12:27;;;;;;;5.30;4.50;;;22.50;32.50;;;;;;5005457;28;20029;-46
2021/12/24 04:14:53;;;;;;;4.90;3.75;;;22.40;32.40;;;;;;5005519;28;20642;-44
2021/12/24 04:17:21;;;;;;;5.22;4.10;;;22.40;32.30;;;;;;5018021;28;20036;-44
2021/12/24 04:25:15;;;;;;;5.70;4.53;;;22.40;32.20;;;;;;5005859;28;20445;-43
2021/12/24 04:27:41;;;;;;;5.47;4.22;;;22.40;32.20;;;;;;5005293;28;20105;-44
2021/12/24 04:30:18;;;;;;;5.47;4.55;;;22.40;32.20;;;;;;5006234;28;20048;-44
2021/12/24 04:51:50;;;;;;;4.95;4.15;;;22.30;32.40;;;;;;5022563;28;20051;-43
2021/12/24 05:05:03;;;;;;;6.40;3.90;;;22.30;33.90;;;;;;5019006;28;20056;-43
2021/12/24 05:10:04;;;;;;;6.32;4.20;;;22.30;34.50;;;;;;5022347;28;20104;-43
2021/12/24 05:12:34;;;;;;;5.50;3.97;;;22.30;34.80;;;;;;5023403;28;20029;-43
2021/12/24 05:15:00;;;;;;;6.10;4.47;;;22.30;35.00;;;;;;5023965;28;20049;-43
2021/12/24 05:17:48;;;;;;;4.90;3.75;;;22.30;35.10;;;;;;5022406;28;20112;-43
2021/12/24 05:22:59;;;;;;;6.00;3.67;;;22.40;34.60;;;;;;5015539;28;20025;-43
2021/12/24 05:25:24;;;;;;;5.30;3.60;;;22.40;34.90;;;;;;5021288;28;20040;-44
2021/12/24 05:27:55;;;;;;;4.32;3.10;;;22.40;34.90;;;;;;5022243;28;20426;-44
2021/12/24 05:30:22;;;;;;;7.20;3.88;;;22.50;35.00;;;;;;5019864;28;20075;-44
2021/12/24 05:32:48;;;;;;;4.70;3.10;;;22.50;35.00;;;;;;5012339;28;20482;-44
2021/12/24 05:35:14;;;;;;;5.07;3.38;;;22.50;34.80;;;;;;5014596;28;20101;-44
2021/12/24 05:37:40;;;;;;;4.15;2.90;;;22.60;34.60;;;;;;5016645;28;20160;-43
2021/12/24 05:40:08;;;;;;;4.07;3.00;;;22.60;34.50;;;;;;5019687;28;20127;-44
2021/12/24 05:42:34;;;;;;;4.57;3.10;;;22.60;34.60;;;;;;5018546;28;20068;-44
2021/12/24 05:45:04;;;;;;;5.90;3.53;;;22.70;34.60;;;;;;5016822;28;20034;-44
2021/12/24 05:47:31;;;;;;;5.22;2.92;;;22.80;34.80;;;;;;5015004;28;20030;-44
2021/12/24 05:49:57;;;;;;;4.95;2.92;;;22.80;35.00;;;;;;5018636;28;20032;-43
2021/12/24 05:52:23;;;;;;;4.72;2.90;;;22.90;34.80;;;;;;5048054;28;20095;-44
2021/12/24 05:54:49;;;;;;;6.03;2.97;;;23.00;34.80;;;;;;5047031;28;20029;-44
2021/12/24 05:57:15;;;;;;;4.03;2.53;;;23.00;35.10;;;;;;5049166;28;20039;-44
2021/12/24 05:59:40;;;;;;;3.40;2.13;;;23.10;34.50;;;;;;5048253;28;20055;-47
2021/12/24 06:02:07;;;;;;;4.25;2.72;;;23.10;34.50;;;;;;5028893;28;20033;-45
2021/12/24 06:04:33;;;;;;;4.70;2.53;;;23.20;34.40;;;;;;5008794;28;20105;-44
2021/12/24 06:06:58;;;;;;;3.97;2.40;;;23.20;34.20;;;;;;5008827;28;20451;-44
2021/12/24 06:09:24;;;;;;;3.42;2.03;;;23.30;34.20;;;;;;5009152;28;20026;-44
2021/12/24 06:11:50;;;;;;;3.50;2.22;;;23.30;34.10;;;;;;5008161;28;20022;-45
2021/12/24 06:14:16;;;;;;;2.90;1.70;;;23.40;34.00;;;;;;5008745;28;20022;-44
2021/12/24 06:16:58;;;;;;;3.28;2.08;;;23.40;33.90;;;;;;5008110;28;20486;-45
2021/12/24 06:19:26;;;;;;;3.10;1.85;;;23.50;33.90;;;;;;5008946;28;20022;-44
2021/12/24 06:21:53;;;;;;;3.60;2.00;;;23.50;33.70;;;;;;5008396;28;20034;-45
2021/12/24 06:24:19;;;;;;;3.05;1.80;;;23.50;33.60;;;;;;5008337;28;20022;-45
2021/12/24 06:26:46;;;;;;;4.40;2.13;;;23.60;33.50;;;;;;5008572;28;20379;-44
2021/12/24 06:29:12;;;;;;;5.10;2.40;;;23.60;33.50;;;;;;5008047;28;20030;-45
2021/12/24 06:31:38;;;;;;;3.00;2.10;;;23.70;33.30;;;;;;5007915;28;20080;-44
2021/12/24 06:34:04;;;;;;;3.20;1.90;;;23.70;33.90;;;;;;5005979;28;20069;-44
2021/12/24 06:36:35;;;;;;;3.50;2.08;;;23.70;33.20;;;;;;5007651;28;20117;-44
2021/12/24 06:39:02;;;;;;;4.32;2.40;;;23.80;33.20;;;;;;5007117;28;20096;-45
2021/12/24 06:41:27;;;;;;;3.53;2.00;;;23.80;33.10;;;;;;5007698;28;20114;-45
2021/12/24 06:43:54;;;;;;;3.28;2.05;;;23.80;33.10;;;;;;5007035;28;20117;-44
2021/12/24 06:46:19;;;;;;;3.10;1.80;;;23.90;33.10;;;;;;5012659;28;20029;-45
2021/12/24 06:48:45;;;;;;;4.10;1.90;;;23.90;33.00;;;;;;5007382;28;20888;-44
2021/12/24 06:51:11;;;;;;;3.58;1.80;;;23.90;33.00;;;;;;5037684;28;20040;-44
2021/12/24 06:53:37;;;;;;;2.83;1.70;;;24.00;32.90;;;;;;5046740;28;20405;-45
2021/12/24 06:56:04;;;;;;;3.60;2.10;;;24.00;32.90;;;;;;5046771;28;20040;-44
2021/12/24 06:58:29;;;;;;;2.63;1.60;;;24.10;32.90;;;;;;5046825;28;20025;-44
2021/12/24 07:00:55;;;;;;;2.42;1.52;;;24.10;32.90;;;;;;5046557;28;20056;-44
2021/12/24 07:03:21;;;;;;;2.85;1.55;;;24.20;32.80;;;;;;5009028;28;20036;-44
2021/12/24 07:05:46;;;;;;;3.28;1.85;;;24.20;32.80;;;;;;5006286;28;20060;-45
2021/12/24 07:08:12;;;;;;;2.75;1.50;;;24.30;32.80;;;;;;5006867;28;20054;-46
2021/12/24 07:10:38;;;;;;;2.55;1.40;;;24.30;32.70;;;;;;5007247;28;20444;-44
2021/12/24 07:13:03;;;;;;;2.63;1.42;;;24.30;32.70;;;;;;5006403;28;20026;-44
2021/12/24 07:15:29;;;;;;;2.53;1.40;;;24.40;32.60;;;;;;5007150;28;20022;-44
2021/12/24 07:17:55;;;;;;;2.40;1.38;;;24.50;32.60;;;;;;5006412;28;20030;-45
2021/12/24 07:20:20;;;;;;;2.85;1.52;;;24.50;32.60;;;;;;5007036;28;20041;-45
2021/12/24 07:22:46;;;;;;;2.45;1.30;;;24.50;32.50;;;;;;5006401;28;20125;-44
2021/12/24 07:25:12;;;;;;;3.20;1.65;;;24.60;32.50;;;;;;5007105;28;20486;-45
2021/12/24 07:27:38;;;;;;;1.90;1.17;;;24.60;32.40;;;;;;5006698;28;20033;-45
2021/12/24 07:30:06;;;;;;;3.08;1.60;;;24.70;32.40;;;;;;5006817;28;20586;-44
2021/12/24 07:32:32;;;;;;;3.45;1.40;;;24.70;32.40;;;;;;5006026;28;20033;-45
2021/12/24 07:34:57;;;;;;;2.70;1.50;;;24.70;32.30;;;;;;5012241;28;20033;-44
2021/12/24 07:37:23;;;;;;;3.08;1.50;;;24.80;32.10;;;;;;5019391;28;20692;-45
2021/12/24 07:39:49;;;;;;;2.40;1.40;;;24.80;32.00;;;;;;5024743;28;20060;-44
2021/12/24 07:42:14;;;;;;;3.05;1.80;;;24.90;32.10;;;;;;5025528;28;20114;-45
2021/12/24 07:44:40;;;;;;;2.50;1.38;;;24.90;32.10;;;;;;5025294;28;20026;-44
2021/12/24 07:47:14;;;;;;;2.58;1.35;;;25.00;32.10;;;;;;5019152;28;20536;-44
2021/12/24 07:49:42;;;;;;;2.35;1.23;;;25.00;32.00;;;;;;5027087;28;20021;-45
2021/12/24 07:54:35;;;;;;;2.30;1.33;;;25.00;31.90;;;;;;5045670;28;20481;-44
2021/12/24 07:57:01;;;;;;;2.78;1.25;;;25.10;31.90;;;;;;5045508;28;20053;-44
2021/12/24 07:59:27;;;;;;;2.13;1.10;;;25.10;31.90;;;;;;5045963;28;20071;-44
2021/12/24 08:01:54;;;;;;;2.88;1.40;;;25.10;31.90;;;;;;5034302;28;20029;-44
2021/12/24 08:04:20;;;;;;;2.97;1.50;;;25.20;31.80;;;;;;5005184;28;20034;-44
2021/12/24 08:06:46;;;;;;;2.20;1.13;;;25.20;31.70;;;;;;5005557;28;20057;-44
2021/12/24 08:09:12;;;;;;;2.78;1.40;;;25.20;31.70;;;;;;5005764;28;20054;-45
2021/12/24 08:11:39;;;;;;;2.05;1.13;;;25.20;31.60;;;;;;5005768;28;20026;-45
2021/12/24 08:14:06;;;;;;;2.63;1.33;;;25.20;31.60;;;;;;5005241;28;20033;-45
2021/12/24 08:16:33;;;;;;;2.75;1.42;;;25.30;31.40;;;;;;5005625;28;20018;-45
2021/12/24 08:19:00;;;;;;;2.63;1.40;;;25.30;31.50;;;;;;5006003;28;20033;-44
2021/12/24 08:21:26;;;;;;;2.72;1.50;;;25.30;31.50;;;;;;5006404;28;20116;-45
2021/12/24 08:23:52;;;;;;;2.10;1.25;;;25.40;31.40;;;;;;5004613;28;20034;-44
2021/12/24 08:26:21;;;;;;;2.17;1.10;;;25.40;31.40;;;;;;5005555;28;20398;-44
2021/12/24 08:28:50;;;;;;;2.00;1.20;;;25.40;31.30;;;;;;5004982;28;20589;-46
2021/12/24 08:31:16;;;;;;;2.67;1.33;;;25.40;31.30;;;;;;5005669;28;20084;-44
2021/12/24 08:33:42;;;;;;;2.15;1.30;;;25.40;31.20;;;;;;5004887;28;20359;-44
2021/12/24 08:36:09;;;;;;;1.70;0.90;;;25.50;31.30;;;;;;5005519;28;20114;-44
2021/12/24 08:38:35;;;;;;;2.25;1.30;;;25.50;31.20;;;;;;5005928;28;20026;-44
2021/12/24 08:41:01;;;;;;;2.47;1.30;;;25.50;31.20;;;;;;5005244;28;20036;-45
2021/12/24 08:43:27;;;;;;;2.00;1.05;;;25.40;31.10;;;;;;5002964;28;20026;-45
2021/12/24 08:45:53;;;;;;;2.08;1.20;;;25.50;31.10;;;;;;5005332;28;20026;-45
2021/12/24 08:48:19;;;;;;;1.80;1.00;;;25.50;31.10;;;;;;5008176;28;20030;-44
2021/12/24 08:50:45;;;;;;;2.33;1.23;;;25.50;31.70;;;;;;5036320;28;20042;-44
2021/12/24 08:53:12;;;;;;;3.17;1.20;;;25.50;31.00;;;;;;5033583;28;20609;-44
2021/12/24 08:55:39;;;;;;;2.30;1.17;;;25.50;31.00;;;;;;5005232;28;20041;-44
2021/12/24 08:58:05;;;;;;;2.58;1.33;;;25.60;30.90;;;;;;5005137;28;20703;-44
2021/12/24 09:00:32;;;;;;;2.67;1.33;;;25.60;30.90;;;;;;5005232;28;20034;-44
2021/12/24 09:02:57;;;;;;;2.70;1.52;;;25.60;30.90;;;;;;5004412;28;20087;-45
2021/12/24 09:05:23;;;;;;;2.47;1.13;;;25.60;30.90;;;;;;5005170;28;20034;-44
2021/12/24 09:07:49;;;;;;;1.80;1.08;;;25.60;30.90;;;;;;5005026;28;20073;-45
2021/12/24 09:10:15;;;;;;;2.25;1.10;;;25.60;30.90;;;;;;5005020;28;20072;-45
2021/12/24 09:12:43;;;;;;;2.20;1.10;;;25.60;30.90;;;;;;5004628;28;20053;-45
2021/12/24 09:15:11;;;;;;;1.92;0.88;;;25.60;30.90;;;;;;5004854;28;20058;-44
2021/12/24 09:17:37;;;;;;;2.50;1.25;;;25.60;30.90;;;;;;5004006;28;20578;-44
2021/12/24 09:20:05;;;;;;;2.15;1.05;;;25.60;30.90;;;;;;5004576;28;20410;-45
2021/12/24 09:22:34;;;;;;;1.83;0.90;;;25.60;30.90;;;;;;5004121;28;20048;-44
2021/12/24 09:25:00;;;;;;;2.15;1.00;;;25.60;30.90;;;;;;5004377;28;20029;-45
2021/12/24 09:27:26;;;;;;;2.67;1.20;;;25.60;30.90;;;;;;5003515;28;20121;-45
2021/12/24 09:29:53;;;;;;;1.85;1.10;;;25.60;30.90;;;;;;5004877;28;20030;-44
2021/12/24 09:32:19;;;;;;;2.33;1.10;;;25.60;30.90;;;;;;5004339;28;20037;-45
2021/12/24 09:34:44;;;;;;;2.58;1.30;;;25.60;30.80;;;;;;5004300;28;20034;-45
2021/12/24 09:37:10;;;;;;;2.17;1.23;;;25.60;30.90;;;;;;5004730;28;20079;-45
2021/12/24 09:39:36;;;;;;;2.25;1.10;;;25.60;30.90;;;;;;5004353;28;20033;-45
2021/12/24 09:42:02;;;;;;;3.17;1.23;;;25.70;30.90;;;;;;5004510;28;20041;-45
2021/12/24 09:44:29;;;;;;;2.35;1.17;;;25.70;30.80;;;;;;5004493;28;20652;-45
2021/12/24 09:46:55;;;;;;;2.72;1.33;;;25.70;30.90;;;;;;5004012;28;20041;-44
2021/12/24 09:49:22;;;;;;;1.95;1.20;;;25.70;30.80;;;;;;5009117;28;20029;-44
2021/12/24 09:51:53;;;;;;;1.92;1.05;;;25.70;31.50;;;;;;5043577;28;20416;-45
2021/12/24 09:54:23;;;;;;;1.33;0.73;;;25.70;30.80;;;;;;5013800;28;20037;-46
2021/12/24 09:56:50;;;;;;;2.13;0.90;;;25.70;30.90;;;;;;5004022;28;20026;-44
2021/12/24 09:59:16;;;;;;;1.60;0.90;;;25.70;30.80;;;;;;5004351;28;20028;-44
2021/12/24 10:01:49;;;;;;;1.45;0.90;;;25.70;30.80;;;;;;5004488;28;20606;-44
2021/12/24 10:04:18;;;;;;;2.50;1.17;;;25.70;30.80;;;;;;5003753;28;20030;-44
2021/12/24 10:07:00;;;;;;;3.03;1.08;;;25.70;30.80;;;;;;5003852;28;20033;-44
2021/12/24 10:09:32;;;;;;;2.03;1.00;;;25.70;30.80;;;;;;5004197;28;20666;-44
2021/12/24 10:12:03;;;;;;;1.80;0.93;;;25.70;30.70;;;;;;5004240;28;20040;-47
2021/12/24 10:14:59;;;;;;;2.22;1.02;;;25.70;30.80;;;;;;5004146;28;20194;-45
2021/12/24 10:17:35;;;;;;;1.40;0.75;;;25.70;30.80;;;;;;5002656;28;20208;-45
2021/12/24 10:20:11;;;;;;;1.27;0.70;;;25.70;30.90;;;;;;5003768;28;20677;-44
2021/12/24 10:22:54;;;;;;;1.15;0.60;;;25.70;30.80;;;;;;5002930;28;20107;-45
2021/12/24 10:25:30;;;;;;;2.22;0.90;;;25.70;30.80;;;;;;5012919;28;20774;-44
2021/12/24 10:27:56;;;;;;;2.20;1.15;;;25.70;30.80;;;;;;5017730;28;20042;-45
2021/12/24 10:30:32;;;;;;;2.33;1.10;;;25.70;31.00;;;;;;5022890;28;20033;-48
2021/12/24 10:33:08;;;;;;;1.88;1.10;;;25.70;31.10;;;;;;5021372;28;20579;-48
2021/12/24 10:35:34;;;;;;;2.78;0.90;;;25.70;31.20;;;;;;5018881;28;20049;-48
2021/12/24 10:38:14;;;;;;;1.27;0.70;;;25.70;31.30;;;;;;5016010;28;20547;-48
2021/12/24 10:41:04;;;;;;;2.47;1.00;;;25.70;31.30;;;;;;5024588;28;20393;-46
2021/12/24 10:43:35;;;;;;;1.98;1.00;;;25.70;31.40;;;;;;5023663;28;20730;-49
2021/12/24 10:46:20;;;;;;;1.83;0.85;;;25.70;31.50;;;;;;5023750;28;20029;-45
2021/12/24 10:49:17;;;;;;;2.97;1.08;;;25.70;31.50;;;;;;5022150;28;20033;-47
2021/12/24 10:52:00;;;;;;;1.92;1.00;;;25.70;31.50;;;;;;5025880;28;20056;-46
2021/12/24 10:54:26;;;;;;;2.30;1.00;;;25.70;31.60;;;;;;5008202;28;20518;-48
2021/12/24 10:56:53;;;;;;;3.08;0.80;;;25.70;31.60;;;;;;5009959;28;20068;-44
2021/12/24 10:59:45;;;;;;;2.08;1.00;;;25.70;31.60;;;;;;5015774;28;20026;-45
2021/12/24 11:02:12;;;;;;;1.58;0.80;;;25.70;31.50;;;;;;5010300;28;20067;-45
2021/12/24 11:04:39;;;;;;;1.30;0.77;;;25.70;31.60;;;;;;5005184;28;20076;-44
2021/12/24 11:07:30;;;;;;;1.80;0.90;;;25.70;31.60;;;;;;5004175;28;20529;-45
2021/12/24 11:10:15;;;;;;;1.75;1.02;;;25.70;31.50;;;;;;5006024;28;20036;-45
2021/12/24 11:12:46;;;;;;;2.58;1.02;;;25.70;31.40;;;;;;5005638;28;20032;-45
2021/12/24 11:15:31;;;;;;;2.63;1.00;;;25.70;31.50;;;;;;5008844;28;20073;-44
2021/12/24 11:18:21;;;;;;;2.55;1.00;;;25.70;31.50;;;;;;5005068;28;20026;-45
2021/12/24 11:20:55;;;;;;;2.38;0.93;;;25.70;31.50;;;;;;5002524;28;20137;-46
2021/12/24 11:23:23;;;;;;;2.50;1.00;;;25.60;31.50;;;;;;5002747;28;20030;-47
2021/12/24 11:25:55;;;;;;;2.33;1.00;;;25.70;31.50;;;;;;5008536;28;20022;-47
2021/12/24 11:28:23;;;;;;;1.80;0.90;;;25.60;31.40;;;;;;5010254;28;20029;-47
2021/12/24 11:31:04;;;;;;;2.15;1.17;;;25.60;31.60;;;;;;5005314;28;20091;-48
2021/12/24 11:33:33;;;;;;;2.20;1.02;;;25.60;31.50;;;;;;5003831;28;20033;-48
2021/12/24 11:36:02;;;;;;;3.28;0.95;;;25.60;31.60;;;;;;5005131;28;20044;-48
2021/12/24 11:38:32;;;;;;;1.40;0.90;;;25.60;32.20;;;;;;5005859;28;20033;-46
2021/12/24 11:41:00;;;;;;;1.85;0.90;;;25.60;31.60;;;;;;5012080;28;20804;-47
2021/12/24 11:43:33;;;;;;;1.70;0.90;;;25.60;31.60;;;;;;5007401;28;20478;-47
2021/12/24 11:46:02;;;;;;;3.40;1.10;;;25.50;31.50;;;;;;5005027;28;20586;-46
2021/12/24 11:48:31;;;;;;;1.85;0.95;;;25.50;31.60;;;;;;5004890;28;20120;-46
2021/12/24 11:51:07;;;;;;;4.43;1.00;;;25.50;31.60;;;;;;5016191;28;20513;-46
2021/12/24 11:53:33;;;;;;;2.75;1.23;;;25.50;31.60;;;;;;5013611;28;20641;-46
2021/12/24 11:56:08;;;;;;;2.88;1.20;;;25.50;31.60;;;;;;5020022;28;20033;-45
2021/12/24 11:58:59;;;;;;;2.67;1.13;;;25.50;31.60;;;;;;5024786;28;20053;-46
2021/12/24 12:01:36;;;;;;;3.13;1.30;;;25.50;31.60;;;;;;5023700;28;20049;-47
2021/12/24 12:04:16;;;;;;;2.80;1.30;;;25.40;31.50;;;;;;5004858;28;20578;-48
2021/12/24 12:06:41;;;;;;;3.22;1.15;;;25.40;31.60;;;;;;5005460;28;20025;-47
2021/12/24 12:09:10;;;;;;;2.92;1.30;;;25.40;31.60;;;;;;5004352;28;20037;-47
2021/12/24 12:11:40;;;;;;;2.35;1.08;;;25.40;31.60;;;;;;5004239;28;20110;-46
2021/12/24 12:14:14;;;;;;;2.63;1.20;;;25.40;31.70;;;;;;5004084;28;20026;-47
2021/12/24 12:16:39;;;;;;;2.33;1.10;;;25.40;31.70;;;;;;5005626;28;20061;-46
2021/12/24 12:22:16;;;;;;;;;;;25.40;31.90;;;;;;5005103;28;20072;-46
2021/12/24 12:27:30;;;;;;;3.83;1.45;;;25.30;31.90;;;;;;5005742;28;20080;-46
2021/12/24 12:29:56;;;;;;;2.88;1.20;;;25.30;31.90;;;;;;5004971;28;20037;-45
2021/12/24 12:32:24;;;;;;;2.78;1.35;;;25.30;31.90;;;;;;5003977;28;20605;-46
2021/12/24 12:34:52;;;;;;;2.95;1.20;;;25.40;31.90;;;;;;5004329;28;20037;-47
2021/12/24 12:37:30;;;;;;;4.18;1.85;;;25.30;31.90;;;;;;5005228;28;20627;-47
2021/12/24 12:40:32;;;;;;;3.55;1.55;;;25.40;31.90;;;;;;5003947;28;20029;-47
2021/12/24 12:43:02;;;;;;;2.92;1.50;;;25.30;31.90;;;;;;5004312;28;20145;-46
2021/12/24 12:45:35;;;;;;;3.42;1.42;;;25.30;31.90;;;;;;5004617;28;20038;-45
2021/12/24 12:48:04;;;;;;;3.72;1.75;;;25.40;31.90;;;;;;5003456;28;20026;-45
2021/12/24 12:50:30;;;;;;;3.42;1.50;;;25.40;31.90;;;;;;5024057;28;20024;-46
2021/12/24 12:53:28;;;;;;;3.70;1.60;;;25.40;31.90;;;;;;5042764;28;20481;-48
2021/12/24 12:56:13;;;;;;;2.83;1.20;;;25.40;31.90;;;;;;5010045;28;20026;-48
2021/12/24 12:58:46;;;;;;;2.30;1.27;;;25.40;31.90;;;;;;5003802;28;20038;-47
2021/12/24 13:01:21;;;;;;;3.30;1.25;;;25.40;31.90;;;;;;5004252;28;20033;-46
2021/12/24 13:03:55;;;;;;;2.53;1.17;;;25.40;31.80;;;;;;5003955;28;20791;-46
2021/12/24 13:06:46;;;;;;;3.13;1.58;;;25.40;31.90;;;;;;5004145;28;20065;-47
2021/12/24 13:09:21;;;;;;;2.65;1.23;;;25.40;31.90;;;;;;5004176;28;20022;-46
2021/12/24 13:11:52;;;;;;;2.25;1.10;;;25.40;31.90;;;;;;5004198;28;20390;-47
2021/12/24 13:14:20;;;;;;;3.80;1.92;;;25.40;31.90;;;;;;5003607;28;20133;-47
2021/12/24 13:25:05;;;;;;;3.40;1.40;;;25.40;31.90;;;;;;5023670;28;20060;-46
2021/12/24 13:27:37;;;;;;;3.38;1.67;;;25.40;31.90;;;;;;5004299;28;20022;-45
2021/12/24 13:30:13;;;;;;;3.30;1.30;;;25.40;31.80;;;;;;5015194;28;20029;-46
2021/12/24 13:32:49;;;;;;;4.05;1.60;;;25.40;31.90;;;;;;5008003;28;20064;-46
2021/12/24 13:35:21;;;;;;;2.90;1.50;;;25.40;31.90;;;;;;5004639;28;20034;-46
2021/12/24 13:37:47;;;;;;;2.78;1.23;;;25.40;31.90;;;;;;5003589;28;20034;-47
2021/12/24 13:40:20;;;;;;;3.90;1.30;;;25.40;31.90;;;;;;5003830;28;20026;-46
2021/12/24 13:43:08;;;;;;;3.60;1.85;;;25.40;31.90;;;;;;5002866;28;20026;-47
2021/12/24 13:45:37;;;;;;;3.05;1.48;;;25.40;31.80;;;;;;5003497;28;20108;-47
2021/12/24 13:48:12;;;;;;;3.35;1.25;;;25.50;31.80;;;;;;5003028;28;20112;-47
2021/12/24 13:56:44;;;;;;;3.00;1.30;;;25.50;31.80;;;;;;5003148;28;20685;-47
2021/12/24 13:59:12;;;;;;;2.30;1.08;;;25.50;31.80;;;;;;5003739;28;20033;-46
2021/12/24 14:01:40;;;;;;;3.10;1.40;;;25.50;31.80;;;;;;5007419;28;20041;-47
2021/12/24 14:04:06;;;;;;;2.75;1.40;;;25.50;31.70;;;;;;5020962;28;20163;-47
2021/12/24 14:06:41;;;;;;;3.03;1.42;;;25.50;31.70;;;;;;5015166;28;20018;-45
2021/12/24 14:09:09;;;;;;;3.03;1.67;;;25.50;31.70;;;;;;5007516;28;20058;-46
2021/12/24 14:11:37;;;;;;;2.88;1.30;;;25.50;31.80;;;;;;5009534;28;20030;-46
2021/12/24 14:14:09;;;;;;;2.85;1.27;;;25.50;31.70;;;;;;5014768;28;20037;-46
2021/12/24 14:19:13;;;;;;;3.25;1.50;;;25.50;31.70;;;;;;5012068;28;20034;-47
2021/12/24 14:21:45;;;;;;;2.88;1.55;;;25.50;31.80;;;;;;5018303;28;20136;-46
2021/12/24 14:24:15;;;;;;;3.63;1.53;;;25.50;32.80;;;;;;5013426;28;20549;-47
2021/12/24 14:26:45;;;;;;;2.67;1.23;;;25.50;32.30;;;;;;5007751;28;20092;-47
2021/12/24 14:29:11;;;;;;;2.50;1.27;;;25.40;32.30;;;;;;5006610;28;20030;-47
2021/12/24 14:31:50;;;;;;;2.67;1.35;;;25.40;32.40;;;;;;5023318;28;20029;-47
2021/12/24 14:34:31;;;;;;;2.38;1.20;;;25.40;32.40;;;;;;5024116;28;20025;-47
2021/12/24 14:37:03;;;;;;;3.28;1.67;;;25.40;32.50;;;;;;5023711;28;20041;-47
2021/12/24 14:39:44;;;;;;;3.65;1.52;;;25.40;32.80;;;;;;5024623;28;20061;-48
2021/12/24 14:42:47;;;;;;;3.00;1.45;;;25.40;32.80;;;;;;5024257;28;20109;-47
2021/12/24 14:45:39;;;;;;;4.53;1.77;;;25.40;32.70;;;;;;5024311;28;20029;-47
2021/12/24 14:48:05;;;;;;;3.47;1.63;;;25.40;32.70;;;;;;5015367;28;20577;-48
2021/12/24 14:50:34;;;;;;;3.40;1.50;;;25.40;32.90;;;;;;5015362;28;20346;-48
2021/12/24 14:53:10;;;;;;;5.45;1.58;;;25.40;32.90;;;;;;5025552;28;20025;-48
2021/12/24 14:55:59;;;;;;;2.88;1.20;;;25.40;33.10;;;;;;5027275;28;20100;-46
2021/12/24 14:58:38;;;;;;;3.53;1.50;;;25.40;33.20;;;;;;5024586;28;20647;-47
2021/12/24 15:01:24;;;;;;;3.38;1.58;;;25.40;33.50;;;;;;5014264;28;20076;-46
2021/12/24 15:03:57;;;;;;;3.33;1.58;;;25.40;33.50;;;;;;5010198;28;20046;-46
2021/12/24 15:06:30;;;;;;;3.05;1.42;;;25.40;33.50;;;;;;5006925;28;20548;-47
2021/12/24 15:09:21;;;;;;;3.42;1.70;;;25.50;33.50;;;;;;5006018;28;20026;-48